createdAt,value
2022-12-08T00:00:35.985Z,12.15
2022-12-08T00:03:02.464Z,12.09
2022-12-08T00:05:28.889Z,11.07
2022-12-08T00:07:55.250Z,10.93
2022-12-08T00:10:47.717Z,10.70
2022-12-08T00:13:07.890Z,11.04
2022-12-08T00:15:34.207Z,11.01
2022-12-08T00:18:00.494Z,11.19
2022-12-08T00:20:26.808Z,11.31
2022-12-08T00:22:53.133Z,10.95
2022-12-08T00:25:19.428Z,10.42
2022-12-08T00:27:45.730Z,10.15
2022-12-08T00:30:12.071Z,9.84
2022-12-08T00:32:38.354Z,9.25
2022-12-08T00:35:05.081Z,9.58
2022-12-08T00:37:31.524Z,9.73
2022-12-08T00:39:57.821Z,9.72
2022-12-08T00:42:24.107Z,10.31
2022-12-08T00:44:50.426Z,11.25
2022-12-08T00:47:20.992Z,12.10
2022-12-08T00:49:49.799Z,11.88
2022-12-08T00:52:16.121Z,12.43
2022-12-08T00:54:42.416Z,12.38
2022-12-08T00:57:08.734Z,12.40
2022-12-08T00:59:35.063Z,11.66
2022-12-08T01:02:01.398Z,11.96
2022-12-08T01:04:27.695Z,12.06
2022-12-08T01:06:54.024Z,11.84
2022-12-08T01:09:20.324Z,11.80
2022-12-08T01:11:46.616Z,12.24
2022-12-08T01:14:12.935Z,11.66
2022-12-08T01:16:39.291Z,10.70
2022-12-08T01:19:05.632Z,10.64
2022-12-08T01:21:31.949Z,10.53
2022-12-08T01:23:58.241Z,10.71
2022-12-08T01:26:24.538Z,10.51
2022-12-08T01:28:50.860Z,10.20
2022-12-08T01:31:17.260Z,9.73
2022-12-08T01:33:43.625Z,10.18
2022-12-08T01:36:09.956Z,9.70
2022-12-08T01:38:36.232Z,9.61
2022-12-08T01:41:02.506Z,9.27
2022-12-08T01:43:28.809Z,9.30
2022-12-08T01:45:55.191Z,9.33
2022-12-08T01:48:21.565Z,8.58
2022-12-08T01:50:47.902Z,7.97
2022-12-08T01:53:14.192Z,8.31
2022-12-08T01:55:40.483Z,8.44
2022-12-08T01:58:06.794Z,7.67
2022-12-08T02:00:33.096Z,8.18
2022-12-08T02:02:59.453Z,8.71
2022-12-08T02:05:25.873Z,8.68
2022-12-08T02:07:52.182Z,9.32
2022-12-08T02:10:18.546Z,9.66
2022-12-08T02:12:44.853Z,9.82
2022-12-08T02:15:11.145Z,9.72
2022-12-08T02:17:37.446Z,11.03
2022-12-08T02:20:04.140Z,11.66
2022-12-08T02:22:30.618Z,11.79
2022-12-08T02:24:56.919Z,12.24
2022-12-08T02:27:23.255Z,12.68
2022-12-08T02:29:49.553Z,14.15
2022-12-08T02:32:15.853Z,14.73
2022-12-08T02:34:42.197Z,14.49
2022-12-08T02:37:08.493Z,14.30
2022-12-08T02:39:34.780Z,15.16
2022-12-08T02:42:01.167Z,15.65
2022-12-08T02:44:27.473Z,15.41
2022-12-08T02:46:53.763Z,15.58
2022-12-08T02:49:20.095Z,16.09
2022-12-08T02:51:46.395Z,15.74
2022-12-08T02:54:12.691Z,16.26
2022-12-08T02:56:39.030Z,15.54
2022-12-08T02:59:05.339Z,15.06
2022-12-08T03:01:31.770Z,15.28
2022-12-08T03:03:58.114Z,14.75
2022-12-08T03:06:24.422Z,14.73
2022-12-08T03:08:50.720Z,14.10
2022-12-08T03:11:17.047Z,14.20
2022-12-08T03:13:43.332Z,13.92
2022-12-08T03:16:09.788Z,13.44
2022-12-08T03:18:36.198Z,12.57
2022-12-08T03:21:02.490Z,12.88
2022-12-08T03:23:28.790Z,11.52
2022-12-08T03:25:55.142Z,12.19
2022-12-08T03:28:21.444Z,11.69
2022-12-08T03:30:47.841Z,11.88
2022-12-08T03:33:14.201Z,12.01
2022-12-08T03:35:40.509Z,11.85
2022-12-08T03:38:06.799Z,12.43
2022-12-08T03:40:33.120Z,12.81
2022-12-08T03:42:59.414Z,12.89
2022-12-08T03:45:25.705Z,12.71
2022-12-08T03:47:52.080Z,13.13
2022-12-08T03:50:18.382Z,13.04
2022-12-08T03:52:44.703Z,13.72
2022-12-08T03:55:11.020Z,13.19
2022-12-08T03:57:37.314Z,13.42
2022-12-08T04:00:03.940Z,13.41
2022-12-08T04:02:30.611Z,13.01
2022-12-08T04:04:56.965Z,12.68
2022-12-08T04:07:23.259Z,13.24
2022-12-08T04:09:49.584Z,13.18
2022-12-08T04:12:15.881Z,12.73
2022-12-08T04:14:42.176Z,13.10
2022-12-08T04:17:08.509Z,14.76
2022-12-08T04:19:34.808Z,14.48
2022-12-08T04:22:01.102Z,15.25
2022-12-08T04:24:27.444Z,15.09
2022-12-08T04:26:53.757Z,15.35
2022-12-08T04:29:20.063Z,15.74
2022-12-08T04:31:46.430Z,15.59
2022-12-08T04:34:12.785Z,16.00
2022-12-08T04:36:39.117Z,15.17
2022-12-08T04:39:05.432Z,15.21
2022-12-08T04:41:31.732Z,16.50
2022-12-08T04:43:58.026Z,16.73
2022-12-08T04:46:24.427Z,18.38
2022-12-08T04:48:50.785Z,17.52
2022-12-08T04:51:17.114Z,18.03
2022-12-08T04:53:46.460Z,17.89
2022-12-08T04:56:13.328Z,18.88
2022-12-08T04:58:39.633Z,19.05
2022-12-08T05:01:05.980Z,19.61
2022-12-08T05:03:32.329Z,18.75
2022-12-08T05:05:59.406Z,19.17
2022-12-08T05:08:26.846Z,18.85
2022-12-08T05:10:53.485Z,19.16
2022-12-08T05:13:19.818Z,19.44
2022-12-08T05:15:46.150Z,20.35
2022-12-08T05:18:12.441Z,19.31
2022-12-08T05:20:38.749Z,20.04
2022-12-08T05:23:05.069Z,20.25
2022-12-08T05:25:31.372Z,20.02
2022-12-08T05:28:17.746Z,20.13
2022-12-08T05:30:43.937Z,20.19
2022-12-08T05:33:10.213Z,19.54
2022-12-08T05:35:36.502Z,19.25
2022-12-08T05:38:02.821Z,18.50
2022-12-08T05:40:29.093Z,18.10
2022-12-08T05:42:55.379Z,18.13
2022-12-08T05:45:21.702Z,18.17
2022-12-08T05:47:48.031Z,18.72
2022-12-08T05:50:14.331Z,19.21
2022-12-08T05:52:40.655Z,19.15
2022-12-08T05:55:06.957Z,18.66
2022-12-08T05:57:33.256Z,17.43
2022-12-08T06:02:26.127Z,19.10
2022-12-08T06:04:52.477Z,18.65
2022-12-08T06:07:18.801Z,18.51
2022-12-08T06:09:45.100Z,18.00
2022-12-08T06:12:11.401Z,18.83
2022-12-08T06:14:37.810Z,19.43
2022-12-08T06:17:04.184Z,19.38
2022-12-08T06:19:30.527Z,19.28
2022-12-08T06:21:56.849Z,18.26
2022-12-08T06:24:23.156Z,18.27
2022-12-08T06:26:49.452Z,18.49
2022-12-08T06:29:15.783Z,19.47
2022-12-08T06:31:42.108Z,20.54
2022-12-08T06:34:08.422Z,20.55
2022-12-08T06:36:34.745Z,21.68
2022-12-08T06:39:01.028Z,20.71
2022-12-08T06:41:27.304Z,20.74
2022-12-08T06:43:53.615Z,21.43
2022-12-08T06:46:21.489Z,21.58
2022-12-08T06:48:47.824Z,22.79
2022-12-08T06:51:14.142Z,21.96
2022-12-08T06:53:40.427Z,20.58
2022-12-08T06:56:06.791Z,21.26
2022-12-08T06:58:33.103Z,21.87
2022-12-08T07:00:59.469Z,22.19
2022-12-08T07:03:25.808Z,21.91
2022-12-08T07:05:52.166Z,21.69
2022-12-08T07:08:18.531Z,22.20
2022-12-08T07:10:44.868Z,22.48
2022-12-08T07:13:11.202Z,22.08
2022-12-08T07:15:37.503Z,21.26
2022-12-08T07:18:03.798Z,20.97
2022-12-08T07:20:30.121Z,21.55
2022-12-08T07:22:56.428Z,22.50
2022-12-08T07:25:22.723Z,22.17
2022-12-08T07:27:49.044Z,22.06
2022-12-08T07:30:15.336Z,22.27
2022-12-08T07:32:41.636Z,22.49
2022-12-08T07:35:07.963Z,22.82
2022-12-08T07:37:34.258Z,21.45
2022-12-08T07:40:00.585Z,20.93
2022-12-08T07:42:26.913Z,21.55
2022-12-08T07:44:53.235Z,22.59
2022-12-08T07:47:19.531Z,21.92
2022-12-08T07:49:45.876Z,20.76
2022-12-08T07:52:12.171Z,20.90
2022-12-08T07:54:38.461Z,21.73
2022-12-08T07:57:04.780Z,21.21
2022-12-08T07:59:31.079Z,20.60
2022-12-08T08:02:22.388Z,20.87
2022-12-08T08:04:43.709Z,21.78
2022-12-08T08:07:10.027Z,21.46
2022-12-08T08:09:36.328Z,21.14
2022-12-08T08:12:29.495Z,21.39
2022-12-08T08:14:48.960Z,21.11
2022-12-08T08:17:15.389Z,20.87
2022-12-08T08:19:41.756Z,21.04
2022-12-08T08:22:08.049Z,21.29
2022-12-08T08:24:34.360Z,21.33
2022-12-08T08:27:00.659Z,21.99
2022-12-08T08:29:26.951Z,21.50
2022-12-08T08:31:53.276Z,21.90
2022-12-08T08:34:19.566Z,20.80
2022-12-08T08:36:45.875Z,18.94
2022-12-08T08:39:12.222Z,20.34
2022-12-08T08:41:38.538Z,20.83
2022-12-08T08:44:04.903Z,20.94
2022-12-08T08:46:31.314Z,20.24
2022-12-08T08:48:57.664Z,21.42
2022-12-08T08:51:23.969Z,21.93
2022-12-08T08:53:50.291Z,21.96
2022-12-08T08:56:16.580Z,21.97
2022-12-08T08:58:42.879Z,21.40
2022-12-08T09:03:00.488Z,18.03
2022-12-08T09:08:03.003Z,24.01
2022-12-08T09:10:29.488Z,23.41
2022-12-08T09:12:55.868Z,24.68
2022-12-08T09:15:22.488Z,25.21
2022-12-08T09:17:48.849Z,25.39
2022-12-08T09:20:15.203Z,26.35
2022-12-08T09:22:41.569Z,27.05
2022-12-08T09:25:08.616Z,26.80
2022-12-08T09:27:35.021Z,26.51
2022-12-08T09:30:01.710Z,27.04
2022-12-08T09:32:28.164Z,26.40
2022-12-08T09:34:54.532Z,27.68
2022-12-08T09:37:20.875Z,27.46
2022-12-08T09:39:47.241Z,26.91
2022-12-08T09:42:13.587Z,29.46
2022-12-08T09:44:39.958Z,27.83
2022-12-08T09:47:06.347Z,28.54
2022-12-08T09:49:32.870Z,28.39
2022-12-08T09:51:59.246Z,28.96
2022-12-08T09:54:25.631Z,27.88
2022-12-08T09:56:51.995Z,28.38
2022-12-08T09:59:18.379Z,28.44
2022-12-08T10:01:44.783Z,28.00
2022-12-08T10:04:11.181Z,27.73
2022-12-08T10:06:37.615Z,27.66
2022-12-08T10:09:03.951Z,27.98
2022-12-08T10:11:30.357Z,26.93
2022-12-08T10:13:56.741Z,26.57
2022-12-08T10:16:29.328Z,26.05
2022-12-08T10:18:56.299Z,27.13
2022-12-08T10:21:22.722Z,26.64
2022-12-08T10:23:49.063Z,26.89
2022-12-08T10:26:15.428Z,27.10
2022-12-08T10:28:45.193Z,26.44
2022-12-08T10:31:12.135Z,26.12
2022-12-08T10:33:38.597Z,26.35
2022-12-08T10:36:05.127Z,26.04
2022-12-08T10:38:31.485Z,26.42
2022-12-08T10:40:57.958Z,26.02
2022-12-08T10:43:24.339Z,25.63
2022-12-08T10:45:50.769Z,24.33
2022-12-08T10:48:17.171Z,25.04
2022-12-08T10:50:43.490Z,24.93
2022-12-08T10:53:09.825Z,25.48
2022-12-08T10:55:36.360Z,26.17
2022-12-08T10:58:02.715Z,25.17
2022-12-08T11:00:29.146Z,26.31
2022-12-08T11:02:55.840Z,25.62
2022-12-08T11:05:22.323Z,26.98
2022-12-08T11:07:48.717Z,26.54
2022-12-08T11:10:15.182Z,27.03
2022-12-08T11:12:41.503Z,25.22
2022-12-08T11:15:07.855Z,25.43
2022-12-08T11:17:34.224Z,26.56
2022-12-08T11:20:00.542Z,25.97
2022-12-08T11:22:26.970Z,27.66
2022-12-08T11:24:53.366Z,26.42
2022-12-08T11:27:19.680Z,26.30
2022-12-08T11:29:46.001Z,26.74
2022-12-08T11:32:12.404Z,27.14
2022-12-08T11:34:38.880Z,26.91
2022-12-08T11:37:08.018Z,26.20
2022-12-08T11:39:34.412Z,25.16
2022-12-08T11:42:00.796Z,25.40
2022-12-08T11:44:27.191Z,25.69
2022-12-08T11:46:53.571Z,25.48
2022-12-08T11:49:19.928Z,24.79
2022-12-08T11:51:46.279Z,24.25
2022-12-08T11:54:12.627Z,24.63
2022-12-08T11:56:38.993Z,24.84
2022-12-08T11:59:05.323Z,24.80
2022-12-08T12:01:31.685Z,24.32
2022-12-08T12:03:58.006Z,25.66
2022-12-08T12:06:46.372Z,25.42
2022-12-08T12:09:10.757Z,26.27
2022-12-08T12:11:37.100Z,25.18
2022-12-08T12:14:03.436Z,25.86
2022-12-08T12:16:29.906Z,25.55
2022-12-08T12:18:56.286Z,25.97
2022-12-08T12:21:24.034Z,26.47
2022-12-08T12:23:50.512Z,25.51
2022-12-08T12:26:17.058Z,25.85
2022-12-08T12:28:43.421Z,25.46
2022-12-08T12:31:09.943Z,25.72
2022-12-08T12:33:36.379Z,24.61
2022-12-08T12:36:05.770Z,24.37
2022-12-08T12:38:32.186Z,25.06
2022-12-08T12:40:58.540Z,24.61
2022-12-08T12:43:24.883Z,25.23
2022-12-08T12:45:51.479Z,24.35
2022-12-08T12:48:17.912Z,24.19
2022-12-08T12:50:44.265Z,24.09
2022-12-08T12:53:13.870Z,25.10
2022-12-08T12:55:40.394Z,24.21
2022-12-08T12:58:06.742Z,23.88
2022-12-08T13:00:33.209Z,24.94
2022-12-08T13:02:59.647Z,24.69
2022-12-08T13:05:26.115Z,23.61
2022-12-08T13:07:52.555Z,24.31
2022-12-08T13:10:19.104Z,24.30
2022-12-08T13:12:45.506Z,24.74
2022-12-08T13:15:11.865Z,25.20
2022-12-08T13:17:38.219Z,25.53
2022-12-08T13:20:04.977Z,24.58
2022-12-08T13:22:31.658Z,25.17
2022-12-08T13:24:58.057Z,25.07
2022-12-08T13:27:24.424Z,25.14
2022-12-08T13:30:01.365Z,24.53
2022-12-08T13:32:54.983Z,24.96
2022-12-08T13:35:20.278Z,23.94
2022-12-08T13:37:54.339Z,24.47
2022-12-08T13:40:21.071Z,24.02
2022-12-08T13:42:47.499Z,25.50
2022-12-08T13:46:04.365Z,25.06
2022-12-08T13:48:23.416Z,23.99
2022-12-08T13:59:05.717Z,24.25
2022-12-08T14:01:32.106Z,25.20
2022-12-08T14:04:33.757Z,25.06
2022-12-08T14:06:44.833Z,25.15
2022-12-08T14:09:11.494Z,25.28
2022-12-08T14:11:38.009Z,23.85
2022-12-08T14:14:04.358Z,24.33
2022-12-08T14:16:30.805Z,24.70
2022-12-08T14:18:57.182Z,24.88
2022-12-08T14:21:23.614Z,24.25
2022-12-08T14:23:49.980Z,24.77
2022-12-08T14:26:16.451Z,23.80
2022-12-08T14:28:45.055Z,23.77
2022-12-08T14:31:11.838Z,24.12
2022-12-08T14:33:38.211Z,24.67
2022-12-08T14:36:04.627Z,24.52
2022-12-08T14:38:31.102Z,25.36
2022-12-08T14:40:57.469Z,24.68
2022-12-08T14:43:23.822Z,24.96
2022-12-08T14:45:50.165Z,24.66
2022-12-08T14:48:16.516Z,25.38
2022-12-08T14:50:42.931Z,26.20
2022-12-08T14:53:09.287Z,25.07
2022-12-08T14:55:35.650Z,24.42
2022-12-08T14:58:02.055Z,25.04
2022-12-08T15:00:28.420Z,25.00
2022-12-08T15:02:54.756Z,24.13
2022-12-08T15:05:21.218Z,25.33
2022-12-08T15:07:47.662Z,25.30
2022-12-08T15:10:14.088Z,25.64
2022-12-08T15:12:40.477Z,25.69
2022-12-08T15:15:06.857Z,26.15
2022-12-08T15:17:33.192Z,25.61
2022-12-08T15:19:59.583Z,25.54
2022-12-08T15:22:25.969Z,25.27
2022-12-08T15:24:52.329Z,25.66
2022-12-08T15:27:18.756Z,26.13
2022-12-08T15:29:45.097Z,27.51
2022-12-08T15:32:11.499Z,31.58
2022-12-08T15:34:37.860Z,37.06
2022-12-08T15:37:04.213Z,28.32
2022-12-08T15:39:30.584Z,27.32
2022-12-08T15:41:57.008Z,27.03
2022-12-08T15:44:23.416Z,26.17
2022-12-08T15:46:49.846Z,26.20
2022-12-08T15:49:16.280Z,27.12
2022-12-08T15:51:42.693Z,26.09
2022-12-08T15:54:09.036Z,27.06
2022-12-08T15:56:45.308Z,26.63
2022-12-08T15:59:21.778Z,27.02
2022-12-08T16:01:48.325Z,27.88
2022-12-08T16:04:59.692Z,29.54
2022-12-08T16:09:47.470Z,28.62
2022-12-08T16:12:13.953Z,28.42
2022-12-08T16:15:47.049Z,29.11
2022-12-08T16:17:26.740Z,28.75
2022-12-08T16:19:53.170Z,29.93
2022-12-08T16:25:22.271Z,30.36
2022-12-08T16:30:35.798Z,33.79
2022-12-08T16:33:02.201Z,29.51
2022-12-08T16:35:28.603Z,32.70
2022-12-08T16:37:55.075Z,35.91
2022-12-08T16:40:21.486Z,33.24
2022-12-08T16:42:47.902Z,31.35
2022-12-08T16:45:14.343Z,30.95
2022-12-08T16:47:40.719Z,31.38
2022-12-08T16:50:07.081Z,30.16
2022-12-08T16:52:33.457Z,30.37
2022-12-08T16:54:59.851Z,28.50
2022-12-08T16:57:26.241Z,29.44
2022-12-08T16:59:52.598Z,29.59
2022-12-08T17:02:18.990Z,29.31
2022-12-08T17:04:45.509Z,29.63
2022-12-08T17:07:11.931Z,29.95
2022-12-08T17:09:38.274Z,30.63
2022-12-08T17:12:04.644Z,31.84
2022-12-08T17:14:31.042Z,33.94
2022-12-08T17:16:57.469Z,31.94
2022-12-08T17:19:23.907Z,32.76
2022-12-08T17:21:50.304Z,33.11
2022-12-08T17:24:21.789Z,32.75
2022-12-08T17:26:48.502Z,31.52
2022-12-08T17:29:14.935Z,32.06
2022-12-08T17:31:41.339Z,32.12
2022-12-08T17:34:09.250Z,37.18
2022-12-08T17:36:35.664Z,32.85
2022-12-08T17:39:01.978Z,29.60
2022-12-08T17:41:28.310Z,30.55
2022-12-08T17:43:54.704Z,28.89
2022-12-08T17:46:21.358Z,29.10
2022-12-08T17:48:49.453Z,29.85
2022-12-08T17:51:18.137Z,30.50
2022-12-08T17:53:44.492Z,29.83
2022-12-08T17:56:13.615Z,29.86
2022-12-08T17:58:40.042Z,29.30
2022-12-08T18:01:06.429Z,29.13
2022-12-08T18:03:32.788Z,29.41
2022-12-08T18:05:59.185Z,29.81
2022-12-08T18:08:25.602Z,31.10
2022-12-08T18:10:51.945Z,30.32
2022-12-08T18:13:18.346Z,29.93
2022-12-08T18:15:44.731Z,30.82
2022-12-08T18:18:11.133Z,30.34
2022-12-08T18:20:37.532Z,30.38
2022-12-08T18:23:03.885Z,31.24
2022-12-08T18:25:30.227Z,31.45
2022-12-08T18:27:56.638Z,30.99
2022-12-08T18:30:23.009Z,31.94
2022-12-08T18:32:54.180Z,30.69
2022-12-08T18:35:23.524Z,33.15
2022-12-08T18:37:49.920Z,31.30
2022-12-08T18:40:16.286Z,31.68
2022-12-08T18:42:42.677Z,31.46
2022-12-08T18:45:11.395Z,30.52
2022-12-08T18:47:37.762Z,31.44
2022-12-08T18:50:04.588Z,29.99
2022-12-08T18:52:32.487Z,30.84
2022-12-08T18:55:06.459Z,31.01
2022-12-08T18:57:35.972Z,31.82
2022-12-08T19:00:02.502Z,32.00
2022-12-08T19:02:31.285Z,32.21
2022-12-08T19:04:57.681Z,33.01
2022-12-08T19:07:24.070Z,33.93
2022-12-08T19:09:50.440Z,32.28
2022-12-08T19:12:16.821Z,30.60
2022-12-08T19:14:43.209Z,29.13
2022-12-08T19:17:09.556Z,30.62
2022-12-08T19:19:35.956Z,30.31
2022-12-08T19:22:02.368Z,32.99
2022-12-08T19:24:28.760Z,32.14
2022-12-08T19:26:55.135Z,30.96
2022-12-08T19:29:21.494Z,29.73
2022-12-08T19:31:47.969Z,29.74
2022-12-08T19:34:14.435Z,30.38
2022-12-08T19:36:40.777Z,29.90
2022-12-08T19:39:07.145Z,29.70
2022-12-08T19:41:33.575Z,31.76
2022-12-08T19:43:59.939Z,31.84
2022-12-08T19:46:26.428Z,29.96
2022-12-08T19:48:52.869Z,30.89
2022-12-08T19:51:19.236Z,30.27
2022-12-08T19:53:47.838Z,30.37
2022-12-08T19:56:17.082Z,31.22
2022-12-08T19:58:43.631Z,31.21
2022-12-08T20:01:11.445Z,31.03
2022-12-08T20:03:39.619Z,30.50
2022-12-08T20:06:06.187Z,31.38
2022-12-08T20:08:32.633Z,31.66
2022-12-08T20:10:59.126Z,30.16
2022-12-08T20:13:25.482Z,29.44
2022-12-08T20:15:51.877Z,30.91
2022-12-08T20:18:18.350Z,32.42
2022-12-08T20:20:44.734Z,32.60
2022-12-08T20:23:11.116Z,32.35
2022-12-08T20:25:37.733Z,30.59
2022-12-08T20:28:04.083Z,29.89
2022-12-08T20:30:30.484Z,30.07
2022-12-08T20:32:56.912Z,30.53
2022-12-08T20:35:23.280Z,30.95
2022-12-08T20:37:49.645Z,32.28
2022-12-08T20:40:16.022Z,31.85
2022-12-08T20:42:42.387Z,31.11
2022-12-08T20:45:09.139Z,30.52
2022-12-08T20:47:35.812Z,31.26
2022-12-08T20:50:02.278Z,30.35
2022-12-08T20:52:28.796Z,30.57
2022-12-08T20:54:55.217Z,30.45
2022-12-08T20:57:21.817Z,29.68
2022-12-08T20:59:48.334Z,31.41
2022-12-08T21:02:14.944Z,30.99
2022-12-08T21:04:41.432Z,31.72
2022-12-08T21:07:08.048Z,30.17
2022-12-08T21:09:34.566Z,30.22
2022-12-08T21:12:01.358Z,31.41
2022-12-08T21:14:27.909Z,33.30
2022-12-08T21:16:54.631Z,32.56
2022-12-08T21:19:21.772Z,33.05
2022-12-08T21:21:48.247Z,32.66
2022-12-08T21:24:14.743Z,32.11
2022-12-08T21:26:41.091Z,32.89
2022-12-08T21:29:07.467Z,31.87
2022-12-08T21:31:34.113Z,31.90
2022-12-08T21:34:00.598Z,32.71
2022-12-08T21:36:27.161Z,32.79
2022-12-08T21:38:53.713Z,34.62
2022-12-08T21:41:20.168Z,34.69
2022-12-08T21:43:46.625Z,32.34
2022-12-08T21:46:13.330Z,33.30
2022-12-08T21:48:39.813Z,34.29
2022-12-08T21:51:06.486Z,33.00
2022-12-08T21:53:33.003Z,32.66
2022-12-08T21:55:59.503Z,32.53
2022-12-08T21:58:25.944Z,33.29
2022-12-08T22:00:52.485Z,34.09
2022-12-08T22:03:19.020Z,33.54
2022-12-08T22:05:45.713Z,34.82
2022-12-08T22:08:13.916Z,32.35
2022-12-08T22:10:40.600Z,31.91
2022-12-08T22:13:07.239Z,32.18
2022-12-08T22:15:33.856Z,32.26
2022-12-08T22:18:00.369Z,31.83
2022-12-08T22:20:27.056Z,32.04
2022-12-08T22:22:53.532Z,32.05
2022-12-08T22:25:19.950Z,32.22
2022-12-08T22:27:46.324Z,32.68
2022-12-08T22:30:13.220Z,33.22
2022-12-08T22:32:40.042Z,32.96
2022-12-08T22:35:06.575Z,33.45
2022-12-08T22:37:33.194Z,34.11
2022-12-08T22:39:59.777Z,33.37
2022-12-08T22:42:26.137Z,33.28
2022-12-08T22:44:52.504Z,33.42
2022-12-08T22:47:18.842Z,32.48
2022-12-08T22:49:45.224Z,33.68
2022-12-08T22:52:11.885Z,33.02
2022-12-08T22:54:38.430Z,33.77
2022-12-08T22:57:04.782Z,34.13
2022-12-08T22:59:31.415Z,34.59
2022-12-08T23:01:57.777Z,33.46
2022-12-08T23:04:24.464Z,34.77
2022-12-08T23:06:51.170Z,34.10
2022-12-08T23:09:17.610Z,33.18
2022-12-08T23:11:44.209Z,34.19
2022-12-08T23:14:10.844Z,34.37
2022-12-08T23:16:37.424Z,33.76
2022-12-08T23:19:04.182Z,32.88
2022-12-08T23:21:30.716Z,32.81
2022-12-08T23:23:57.235Z,33.77
2022-12-08T23:26:23.820Z,33.94
2022-12-08T23:28:50.266Z,33.00
2022-12-08T23:31:16.918Z,35.05
2022-12-08T23:33:43.632Z,32.91
2022-12-08T23:36:10.084Z,34.68
2022-12-08T23:38:36.430Z,34.93
2022-12-08T23:41:02.950Z,35.48
2022-12-08T23:43:29.493Z,35.89
2022-12-08T23:45:56.024Z,36.64
2022-12-08T23:48:22.458Z,34.73
2022-12-08T23:50:49.091Z,35.87
2022-12-08T23:53:15.634Z,37.11
2022-12-08T23:55:42.072Z,38.27
2022-12-08T23:58:08.699Z,37.98
